createdAt,value
2023-03-20T00:02:07.073Z,67.19
2023-03-20T00:04:34.422Z,67.51
2023-03-20T00:07:01.789Z,67.98
2023-03-20T00:09:28.820Z,67.12
2023-03-20T00:11:55.966Z,66.17
2023-03-20T00:14:25.140Z,66.70
2023-03-20T00:16:53.009Z,67.19
2023-03-20T00:19:24.505Z,67.19
2023-03-20T00:21:52.980Z,67.21
2023-03-20T00:24:20.692Z,67.08
2023-03-20T00:26:49.834Z,67.00
2023-03-20T00:29:27.822Z,67.16
2023-03-20T00:31:55.477Z,67.22
2023-03-20T00:34:24.532Z,67.89
2023-03-20T00:36:52.561Z,67.21
2023-03-20T00:39:20.372Z,66.73
2023-03-20T00:42:06.520Z,66.96
2023-03-20T00:44:59.888Z,66.98
2023-03-20T00:47:27.952Z,67.81
2023-03-20T00:49:56.223Z,67.41
2023-03-20T00:52:24.192Z,67.22
2023-03-20T00:54:51.147Z,66.63
2023-03-20T00:57:28.635Z,66.88
2023-03-20T01:00:09.499Z,66.69
2023-03-20T01:02:36.510Z,67.54
2023-03-20T01:05:05.932Z,67.68
2023-03-20T01:07:33.105Z,67.91
2023-03-20T01:10:23.599Z,67.87
2023-03-20T01:13:12.413Z,67.47
2023-03-20T01:16:05.162Z,68.29
2023-03-20T01:18:58.691Z,68.79
2023-03-20T01:24:15.097Z,69.35
2023-03-20T01:26:43.912Z,68.89
2023-03-20T01:29:20.522Z,68.46
2023-03-20T01:31:48.504Z,68.44
2023-03-20T01:34:16.822Z,68.51
2023-03-20T01:36:51.426Z,68.30
2023-03-20T01:39:21.954Z,67.76
2023-03-20T01:41:51.196Z,67.69
2023-03-20T01:44:31.338Z,67.24
2023-03-20T01:47:00.328Z,67.43
2023-03-20T01:49:28.523Z,67.00
2023-03-20T01:51:57.264Z,67.28
2023-03-20T01:54:35.802Z,67.06
2023-03-20T01:57:23.703Z,67.92
2023-03-20T01:59:56.069Z,67.67
2023-03-20T02:02:29.006Z,67.19
2023-03-20T02:05:02.661Z,67.51
2023-03-20T02:07:32.323Z,67.29
2023-03-20T02:10:28.965Z,67.07
2023-03-20T02:13:18.954Z,67.33
2023-03-20T02:16:28.033Z,66.98
2023-03-20T02:19:29.205Z,67.38
2023-03-20T02:22:58.138Z,67.41
2023-03-20T02:26:11.693Z,67.57
2023-03-20T02:28:48.155Z,67.86
2023-03-20T02:31:43.023Z,68.54
2023-03-20T02:34:09.964Z,68.47
2023-03-20T02:36:45.931Z,68.05
2023-03-20T02:39:19.622Z,67.37
2023-03-20T02:41:53.645Z,67.49
2023-03-20T02:44:20.538Z,67.47
2023-03-20T02:46:57.846Z,68.03
2023-03-20T02:49:27.759Z,67.48
2023-03-20T02:52:02.567Z,67.52
2023-03-20T02:54:38.454Z,68.19
2023-03-20T02:57:16.522Z,67.91
2023-03-20T03:00:03.980Z,68.13
2023-03-20T03:02:38.339Z,68.77
2023-03-20T03:05:14.492Z,68.56
2023-03-20T03:07:47.236Z,68.95
2023-03-20T03:10:30.132Z,69.31
2023-03-20T03:13:00.663Z,69.58
2023-03-20T03:15:39.334Z,69.41
2023-03-20T03:18:11.911Z,69.69
2023-03-20T03:20:40.237Z,69.68
2023-03-20T03:23:07.856Z,69.85
2023-03-20T03:25:38.659Z,70.12
2023-03-20T03:28:12.296Z,70.29
2023-03-20T03:30:40.266Z,70.32
2023-03-20T03:33:38.811Z,70.25
2023-03-20T03:36:14.484Z,70.13
2023-03-20T03:38:51.674Z,69.76
2023-03-20T03:41:24.479Z,69.41
2023-03-20T03:44:14.801Z,69.42
2023-03-20T03:46:51.953Z,69.30
2023-03-20T03:49:31.245Z,69.51
2023-03-20T03:52:06.926Z,69.24
2023-03-20T03:54:48.484Z,69.03
2023-03-20T03:57:23.076Z,69.16
2023-03-20T03:59:53.219Z,69.23
2023-03-20T04:02:22.638Z,69.52
2023-03-20T04:04:53.543Z,69.29
2023-03-20T04:07:21.699Z,69.22
2023-03-20T04:09:48.707Z,70.27
2023-03-20T04:12:36.594Z,70.18
2023-03-20T04:15:04.516Z,69.68
2023-03-20T04:17:31.771Z,69.04
2023-03-20T04:19:58.727Z,69.97
2023-03-20T04:22:25.878Z,69.26
2023-03-20T04:24:53.182Z,68.75
2023-03-20T04:27:21.222Z,68.78
2023-03-20T04:29:48.364Z,68.37
2023-03-20T04:32:15.338Z,68.25
2023-03-20T04:34:42.497Z,68.92
2023-03-20T04:37:09.634Z,69.21
2023-03-20T04:39:37.657Z,69.73
2023-03-20T04:42:06.203Z,70.57
2023-03-20T04:44:33.137Z,70.36
2023-03-20T04:47:00.600Z,71.32
2023-03-20T04:49:29.222Z,71.31
2023-03-20T04:51:56.683Z,70.92
2023-03-20T04:54:23.634Z,70.08
2023-03-20T04:56:50.786Z,69.78
2023-03-20T04:59:18.126Z,69.26
2023-03-20T05:01:45.166Z,69.99
2023-03-20T05:04:12.323Z,71.44
2023-03-20T05:06:42.162Z,70.74
2023-03-20T05:09:09.649Z,71.16
2023-03-20T05:11:36.795Z,70.67
2023-03-20T05:14:04.952Z,70.34
2023-03-20T05:16:31.925Z,72.26
2023-03-20T05:18:58.984Z,70.63
2023-03-20T05:21:26.029Z,70.17
2023-03-20T05:23:53.041Z,69.76
2023-03-20T05:26:20.143Z,69.88
2023-03-20T05:28:47.190Z,70.92
2023-03-20T05:31:14.200Z,70.70
2023-03-20T05:33:41.272Z,69.63
2023-03-20T05:36:08.884Z,69.67
2023-03-20T05:38:35.947Z,69.28
2023-03-20T05:41:02.877Z,69.04
2023-03-20T05:43:29.894Z,69.05
2023-03-20T05:45:57.357Z,68.96
2023-03-20T05:48:25.086Z,69.20
2023-03-20T05:50:52.144Z,69.18
2023-03-20T05:53:19.356Z,69.03
2023-03-20T05:55:46.463Z,68.16
2023-03-20T05:58:13.597Z,68.39
2023-03-20T06:00:40.947Z,67.82
2023-03-20T06:03:07.949Z,68.02
2023-03-20T06:05:36.241Z,68.53
2023-03-20T06:08:04.137Z,68.55
2023-03-20T06:10:31.508Z,68.18
2023-03-20T06:13:01.326Z,68.66
2023-03-20T06:15:29.018Z,67.51
2023-03-20T06:17:56.930Z,67.12
2023-03-20T06:20:24.547Z,66.24
2023-03-20T06:22:52.096Z,65.85
2023-03-20T06:25:20.260Z,64.63
2023-03-20T06:27:48.506Z,64.13
2023-03-20T06:30:16.809Z,63.37
2023-03-20T06:32:44.582Z,62.38
2023-03-20T06:35:12.457Z,62.78
2023-03-20T06:37:40.062Z,61.46
2023-03-20T06:40:07.886Z,61.45
2023-03-20T06:42:34.837Z,62.12
2023-03-20T06:45:01.842Z,63.17
2023-03-20T06:47:28.853Z,62.36
2023-03-20T06:49:56.144Z,62.86
2023-03-20T06:52:23.689Z,63.32
2023-03-20T06:54:51.390Z,62.74
2023-03-20T06:57:18.562Z,63.27
2023-03-20T06:59:45.863Z,63.28
2023-03-20T07:02:13.062Z,62.58
2023-03-20T07:04:40.631Z,62.63
2023-03-20T07:07:07.717Z,62.59
2023-03-20T07:09:35.168Z,62.86
2023-03-20T07:12:02.739Z,62.95
2023-03-20T07:14:29.789Z,61.60
2023-03-20T07:16:57.528Z,61.61
2023-03-20T07:19:24.641Z,62.22
2023-03-20T07:21:58.400Z,61.39
2023-03-20T07:24:25.430Z,61.86
2023-03-20T07:26:52.674Z,60.80
2023-03-20T07:29:19.696Z,61.31
2023-03-20T07:31:46.757Z,61.05
2023-03-20T07:34:13.898Z,60.44
2023-03-20T07:36:42.515Z,60.70
2023-03-20T07:39:11.373Z,60.02
2023-03-20T07:41:38.443Z,60.58
2023-03-20T07:44:08.273Z,60.25
2023-03-20T07:46:35.303Z,59.92
2023-03-20T07:49:02.440Z,61.55
2023-03-20T07:51:29.379Z,62.21
2023-03-20T07:53:56.484Z,63.14
2023-03-20T07:56:23.479Z,64.47
2023-03-20T07:58:50.658Z,65.37
2023-03-20T08:01:17.637Z,69.18
2023-03-20T08:03:44.693Z,71.12
2023-03-20T08:06:11.867Z,72.63
2023-03-20T08:08:39.256Z,72.62
2023-03-20T08:11:06.380Z,73.44
2023-03-20T08:13:33.400Z,74.07
2023-03-20T08:16:00.403Z,74.23
2023-03-20T08:18:27.453Z,74.54
2023-03-20T08:20:54.490Z,74.40
2023-03-20T08:23:21.660Z,74.20
2023-03-20T08:25:50.300Z,75.03
2023-03-20T08:28:18.276Z,75.01
2023-03-20T08:30:45.401Z,75.19
2023-03-20T08:33:13.552Z,75.39
2023-03-20T08:35:40.967Z,76.84
2023-03-20T08:38:08.013Z,77.21
2023-03-20T08:40:35.030Z,79.97
2023-03-20T08:43:01.991Z,79.65
2023-03-20T08:45:29.034Z,78.60
2023-03-20T08:47:55.999Z,77.28
2023-03-20T08:50:23.241Z,77.01
2023-03-20T08:52:50.288Z,75.65
2023-03-20T08:55:17.503Z,74.51
2023-03-20T08:57:44.576Z,73.79
2023-03-20T09:00:14.633Z,74.48
2023-03-20T09:02:44.271Z,74.20
2023-03-20T09:05:11.467Z,74.80
2023-03-20T09:07:38.510Z,73.56
2023-03-20T09:10:06.256Z,74.38
2023-03-20T09:12:34.175Z,73.15
2023-03-20T09:15:01.830Z,75.26
2023-03-20T09:17:29.083Z,75.04
2023-03-20T09:19:56.038Z,75.62
2023-03-20T09:22:23.220Z,74.22
2023-03-20T09:24:50.189Z,73.67
2023-03-20T09:27:17.150Z,73.05
2023-03-20T09:29:44.606Z,73.27
2023-03-20T09:32:13.998Z,74.66
2023-03-20T09:34:41.145Z,74.03
2023-03-20T09:37:08.301Z,72.16
2023-03-20T09:39:35.598Z,73.24
2023-03-20T09:42:48.789Z,72.28
2023-03-20T09:45:43.563Z,71.32
2023-03-20T09:48:41.871Z,71.21
2023-03-20T09:51:29.765Z,70.33
2023-03-20T09:54:14.920Z,73.00
2023-03-20T09:56:42.133Z,75.36
2023-03-20T09:59:12.844Z,75.11
2023-03-20T10:01:49.469Z,74.18
2023-03-20T10:04:16.683Z,74.99
2023-03-20T10:06:43.971Z,74.52
2023-03-20T10:09:26.827Z,74.24
2023-03-20T10:12:51.738Z,74.43
2023-03-20T10:15:47.256Z,75.09
2023-03-20T10:18:33.817Z,75.18
2023-03-20T10:21:07.639Z,74.02
2023-03-20T10:23:48.011Z,74.54
2023-03-20T10:26:19.577Z,74.83
2023-03-20T10:28:51.125Z,75.25
2023-03-20T10:31:55.884Z,75.75
2023-03-20T10:34:41.767Z,77.58
2023-03-20T10:37:23.162Z,77.95
2023-03-20T10:40:27.741Z,77.02
2023-03-20T10:42:59.330Z,77.55
2023-03-20T10:45:44.539Z,77.41
2023-03-20T10:48:38.383Z,76.84
2023-03-20T10:51:14.518Z,77.23
2023-03-20T10:53:49.187Z,78.64
2023-03-20T10:56:33.152Z,79.28
2023-03-20T10:59:07.192Z,78.96
2023-03-20T11:01:35.843Z,80.03
2023-03-20T11:04:03.195Z,79.12
2023-03-20T11:06:43.667Z,78.31
2023-03-20T11:09:20.076Z,78.46
2023-03-20T11:11:48.642Z,79.30
2023-03-20T11:14:23.095Z,77.85
2023-03-20T11:16:53.273Z,76.74
2023-03-20T11:19:22.318Z,76.53
2023-03-20T11:21:58.554Z,75.09
2023-03-20T11:24:46.695Z,74.39
2023-03-20T11:27:18.241Z,75.26
2023-03-20T11:29:49.901Z,75.85
2023-03-20T11:32:31.408Z,74.98
2023-03-20T11:35:31.404Z,75.12
2023-03-20T11:38:20.557Z,74.04
2023-03-20T11:40:49.670Z,73.13
2023-03-20T11:43:22.650Z,70.71
2023-03-20T11:46:00.462Z,70.44
2023-03-20T11:48:38.665Z,69.89
2023-03-20T11:51:09.550Z,70.66
2023-03-20T11:53:40.556Z,71.68
2023-03-20T11:56:26.550Z,71.09
2023-03-20T11:59:18.535Z,69.35
2023-03-20T12:01:56.058Z,70.62
2023-03-20T12:04:38.009Z,69.59
2023-03-20T12:07:30.957Z,67.84
2023-03-20T12:10:03.983Z,68.07
2023-03-20T12:12:43.445Z,67.36
2023-03-20T12:15:13.547Z,69.74
2023-03-20T12:18:03.318Z,69.69
2023-03-20T12:20:37.328Z,70.20
2023-03-20T12:23:10.625Z,69.52
2023-03-20T12:26:04.466Z,70.40
2023-03-20T12:28:42.028Z,70.64
2023-03-20T12:31:25.757Z,69.22
2023-03-20T12:33:55.364Z,69.84
2023-03-20T12:36:32.969Z,69.52
2023-03-20T12:39:03.472Z,69.94
2023-03-20T12:41:57.682Z,69.49
2023-03-20T12:44:37.535Z,70.63
2023-03-20T12:47:29.858Z,69.86
2023-03-20T12:49:59.789Z,71.23
2023-03-20T12:52:39.530Z,71.83
2023-03-20T12:55:26.334Z,71.97
2023-03-20T12:57:53.270Z,71.91
2023-03-20T13:00:33.334Z,72.19
2023-03-20T13:03:23.824Z,72.39
2023-03-20T13:06:14.629Z,73.60
2023-03-20T13:09:11.455Z,73.20
2023-03-20T13:11:46.926Z,73.54
2023-03-20T13:14:24.738Z,74.30
2023-03-20T13:17:02.829Z,73.08
2023-03-20T13:20:01.905Z,74.24
2023-03-20T13:23:02.427Z,73.61
2023-03-20T13:25:54.166Z,73.38
2023-03-20T13:28:32.109Z,73.63
2023-03-20T13:31:07.968Z,72.52
2023-03-20T13:33:43.702Z,72.57
2023-03-20T13:36:38.775Z,71.91
2023-03-20T13:39:31.450Z,71.86
2023-03-20T13:42:01.963Z,72.49
2023-03-20T13:44:31.964Z,72.39
2023-03-20T13:47:06.023Z,72.88
2023-03-20T13:49:39.534Z,72.67
2023-03-20T13:52:15.755Z,73.33
2023-03-20T13:55:11.877Z,73.46
2023-03-20T13:58:11.302Z,73.45
2023-03-20T14:00:55.864Z,73.40
2023-03-20T14:03:38.244Z,72.96
2023-03-20T14:06:31.024Z,72.73
2023-03-20T14:09:00.109Z,74.43
2023-03-20T14:11:35.664Z,74.49
2023-03-20T14:14:29.908Z,74.08
2023-03-20T14:17:20.002Z,74.57
2023-03-20T14:19:49.297Z,74.63
2023-03-20T14:22:27.891Z,74.50
2023-03-20T14:25:08.961Z,74.96
2023-03-20T14:27:53.057Z,75.62
2023-03-20T14:30:32.272Z,75.75
2023-03-20T14:33:00.621Z,75.95
2023-03-20T14:35:29.308Z,75.90
2023-03-20T14:38:09.916Z,75.72
2023-03-20T14:40:47.757Z,76.08
2023-03-20T14:43:26.828Z,75.29
2023-03-20T14:46:17.608Z,76.66
2023-03-20T14:48:53.174Z,78.56
2023-03-20T14:51:41.939Z,79.48
2023-03-20T14:54:30.101Z,80.23
2023-03-20T14:57:09.631Z,80.44
2023-03-20T14:59:37.714Z,80.64
2023-03-20T15:02:05.038Z,80.74
2023-03-20T15:04:39.285Z,80.34
2023-03-20T15:07:12.198Z,80.05
2023-03-20T15:09:43.873Z,79.96
2023-03-20T15:12:17.904Z,78.78
2023-03-20T15:14:53.865Z,79.38
2023-03-20T15:17:24.931Z,78.55
2023-03-20T15:20:01.776Z,78.24
2023-03-20T15:22:28.723Z,78.70
2023-03-20T15:24:57.285Z,78.29
2023-03-20T15:27:26.666Z,78.30
2023-03-20T15:29:56.219Z,78.93
2023-03-20T15:32:24.204Z,80.41
2023-03-20T15:34:51.471Z,80.47
2023-03-20T15:37:23.660Z,80.24
2023-03-20T15:39:55.670Z,81.45
2023-03-20T15:42:25.525Z,80.64
2023-03-20T15:44:55.471Z,81.40
2023-03-20T15:47:24.475Z,82.09
2023-03-20T15:49:54.578Z,81.71
2023-03-20T15:52:54.532Z,81.65
2023-03-20T15:55:25.028Z,81.71
2023-03-20T15:57:56.301Z,82.48
2023-03-20T16:00:29.304Z,82.79
2023-03-20T16:02:57.154Z,82.70
2023-03-20T16:05:27.785Z,83.32
2023-03-20T16:07:55.879Z,83.52
2023-03-20T16:10:30.503Z,83.46
2023-03-20T16:12:58.166Z,83.91
2023-03-20T16:15:28.066Z,84.31
2023-03-20T16:17:57.720Z,85.04
2023-03-20T16:20:28.196Z,85.18
2023-03-20T16:23:01.079Z,84.96
2023-03-20T16:25:28.153Z,86.08
2023-03-20T16:27:55.672Z,87.29
2023-03-20T16:30:24.400Z,87.44
2023-03-20T16:33:00.041Z,86.88
2023-03-20T16:35:33.013Z,86.43
2023-03-20T16:38:02.704Z,86.84
2023-03-20T16:40:34.086Z,86.58
2023-03-20T16:43:17.693Z,87.42
2023-03-20T16:45:49.613Z,87.50
2023-03-20T16:48:16.536Z,87.00
2023-03-20T16:50:45.700Z,87.00
2023-03-20T16:53:15.727Z,87.43
2023-03-20T16:55:45.717Z,88.07
2023-03-20T16:58:20.339Z,88.85
2023-03-20T17:00:53.118Z,88.83
2023-03-20T17:03:26.760Z,88.81
2023-03-20T17:06:27.669Z,90.81
2023-03-20T17:09:02.301Z,91.32
2023-03-20T17:11:35.085Z,90.69
2023-03-20T17:14:04.520Z,89.99
2023-03-20T17:16:33.411Z,89.00
2023-03-20T17:19:07.733Z,91.92
2023-03-20T17:21:35.008Z,94.71
2023-03-20T17:24:02.113Z,94.56
2023-03-20T17:26:29.359Z,94.49
2023-03-20T17:28:56.580Z,94.19
2023-03-20T17:31:23.763Z,94.50
2023-03-20T17:33:50.796Z,94.39
2023-03-20T17:36:28.216Z,93.76
2023-03-20T17:38:56.757Z,93.02
2023-03-20T17:41:24.629Z,94.31
2023-03-20T17:43:52.410Z,97.79
2023-03-20T17:46:21.551Z,100.00
2023-03-20T17:48:49.575Z,100.00
2023-03-20T17:51:16.670Z,100.00
2023-03-20T17:53:43.991Z,100.00
2023-03-20T17:56:15.830Z,100.00
2023-03-20T17:58:45.973Z,100.00
2023-03-20T18:01:14.169Z,100.00
2023-03-20T18:03:41.428Z,100.00
2023-03-20T18:06:15.899Z,100.00
2023-03-20T18:08:42.860Z,100.00
2023-03-20T18:11:09.994Z,100.00
2023-03-20T18:13:36.941Z,100.00
2023-03-20T18:16:04.193Z,100.00
2023-03-20T18:18:31.151Z,100.00
2023-03-20T18:20:59.612Z,100.00
2023-03-20T18:23:26.665Z,100.00
2023-03-20T18:25:53.728Z,100.00
2023-03-20T18:28:24.761Z,100.00
2023-03-20T18:30:51.959Z,100.00
2023-03-20T18:33:19.705Z,100.00
2023-03-20T18:35:47.337Z,100.00
2023-03-20T18:38:14.685Z,100.00
2023-03-20T18:40:44.445Z,100.00
2023-03-20T18:43:11.942Z,100.00
2023-03-20T18:45:40.241Z,100.00
2023-03-20T18:48:07.417Z,100.00
2023-03-20T18:50:38.098Z,100.00
2023-03-20T18:53:06.786Z,100.00
2023-03-20T18:55:34.881Z,100.00
2023-03-20T18:58:06.515Z,100.00
2023-03-20T19:00:40.552Z,100.00
2023-03-20T19:03:09.333Z,100.00
2023-03-20T19:05:36.666Z,100.00
2023-03-20T19:08:03.891Z,100.00
2023-03-20T19:10:39.670Z,100.00
2023-03-20T19:13:07.809Z,100.00
2023-03-20T19:15:37.018Z,100.00
2023-03-20T19:18:06.149Z,100.00
2023-03-20T19:20:42.069Z,100.00
2023-03-20T19:23:12.496Z,100.00
2023-03-20T19:25:41.958Z,100.00
2023-03-20T19:28:21.384Z,100.00
2023-03-20T19:30:49.360Z,100.00
2023-03-20T19:33:16.629Z,100.00
2023-03-20T19:36:01.893Z,100.00
2023-03-20T19:38:30.736Z,100.00
2023-03-20T19:40:57.990Z,100.00
2023-03-20T19:43:25.125Z,100.00
2023-03-20T19:45:58.377Z,100.00
2023-03-20T19:48:46.886Z,100.00
2023-03-20T19:51:22.452Z,100.00
2023-03-20T19:53:50.641Z,99.48
2023-03-20T19:56:19.525Z,98.69
2023-03-20T19:58:48.085Z,97.81
2023-03-20T20:01:18.579Z,97.25
2023-03-20T20:03:46.414Z,97.41
2023-03-20T20:06:14.578Z,97.22
2023-03-20T20:08:48.256Z,96.54
2023-03-20T20:11:21.202Z,95.95
2023-03-20T20:14:05.778Z,95.81
2023-03-20T20:16:36.862Z,95.63
2023-03-20T20:19:04.805Z,95.50
2023-03-20T20:24:22.251Z,94.34
2023-03-20T20:26:59.955Z,95.38
2023-03-20T20:29:34.409Z,95.91
2023-03-20T20:32:01.586Z,95.71
2023-03-20T20:40:05.672Z,96.07
2023-03-20T20:42:34.605Z,95.75
2023-03-20T20:45:01.572Z,95.70
2023-03-20T20:47:28.658Z,95.06
2023-03-20T20:49:56.057Z,94.93
2023-03-20T20:52:23.055Z,94.53
2023-03-20T20:54:50.495Z,94.50
2023-03-20T20:57:18.204Z,94.61
2023-03-20T20:59:45.157Z,94.56
2023-03-20T21:02:12.357Z,94.49
2023-03-20T21:04:41.256Z,94.73
2023-03-20T21:07:11.820Z,94.30
2023-03-20T21:09:39.686Z,94.41
2023-03-20T21:12:08.066Z,94.43
2023-03-20T21:14:35.523Z,95.01
2023-03-20T21:17:02.805Z,94.83
2023-03-20T21:19:57.030Z,94.67
2023-03-20T21:22:24.643Z,94.19
2023-03-20T21:25:03.627Z,93.92
2023-03-20T21:27:38.624Z,93.55
2023-03-20T21:30:07.302Z,93.19
2023-03-20T21:32:37.094Z,93.74
2023-03-20T21:35:09.639Z,93.92
2023-03-20T21:40:24.950Z,93.87
2023-03-20T21:42:52.334Z,93.73
2023-03-20T21:46:18.473Z,93.98
2023-03-20T21:48:49.502Z,94.70
2023-03-20T21:51:39.757Z,95.39
2023-03-20T21:59:57.344Z,96.44
2023-03-20T22:02:14.373Z,97.13
2023-03-20T22:05:37.356Z,97.96
2023-03-20T22:11:12.894Z,100.00
2023-03-20T22:16:42.904Z,100.00
2023-03-20T22:27:55.349Z,100.00
2023-03-20T22:30:31.324Z,100.00
2023-03-20T22:41:50.511Z,100.00
2023-03-20T22:46:49.759Z,100.00
2023-03-20T22:49:16.789Z,100.00
2023-03-20T22:51:55.641Z,100.00
2023-03-20T22:54:24.840Z,100.00
2023-03-20T22:56:51.833Z,100.00
2023-03-20T22:59:18.729Z,100.00
2023-03-20T23:01:46.180Z,100.00
2023-03-20T23:04:13.244Z,100.00
2023-03-20T23:06:41.377Z,100.00
2023-03-20T23:09:15.170Z,100.00
2023-03-20T23:11:43.130Z,100.00
2023-03-20T23:14:20.456Z,100.00
2023-03-20T23:16:49.354Z,100.00
2023-03-20T23:19:16.645Z,100.00
2023-03-20T23:21:43.622Z,100.00
2023-03-20T23:24:10.626Z,100.00
2023-03-20T23:26:37.652Z,100.00
2023-03-20T23:29:04.831Z,100.00
2023-03-20T23:31:31.841Z,100.00
2023-03-20T23:33:58.955Z,100.00
2023-03-20T23:36:42.463Z,100.00
2023-03-20T23:39:12.003Z,100.00
2023-03-20T23:42:10.019Z,100.00
2023-03-20T23:44:26.569Z,100.00
2023-03-20T23:46:54.954Z,100.00
2023-03-20T23:49:21.981Z,100.00
2023-03-20T23:51:49.058Z,100.00
2023-03-20T23:54:16.505Z,100.00
2023-03-20T23:56:43.557Z,100.00
2023-03-20T23:59:21.055Z,100.00
